createdAt,value
2022-11-29T00:00:44.962Z,0.00
2022-11-29T00:01:45.015Z,0.00
2022-11-29T00:02:45.062Z,0.00
2022-11-29T00:03:44.928Z,0.00
2022-11-29T00:04:45.373Z,0.00
2022-11-29T00:05:44.907Z,0.00
2022-11-29T00:06:44.893Z,0.00
2022-11-29T00:07:44.899Z,0.00
2022-11-29T00:08:44.872Z,0.00
2022-11-29T00:09:44.864Z,0.00
2022-11-29T00:10:44.848Z,0.00
2022-11-29T00:11:44.839Z,0.00
2022-11-29T00:12:44.827Z,0.00
2022-11-29T00:13:44.820Z,0.00
2022-11-29T00:14:45.091Z,0.00
2022-11-29T00:15:44.797Z,0.00
2022-11-29T00:16:44.884Z,0.00
2022-11-29T00:17:44.801Z,0.00
2022-11-29T00:18:44.782Z,0.00
2022-11-29T00:19:44.746Z,0.00
2022-11-29T00:20:44.739Z,0.00
2022-11-29T00:21:44.725Z,0.00
2022-11-29T00:22:44.714Z,0.00
2022-11-29T00:23:44.701Z,0.00
2022-11-29T00:24:44.896Z,0.00
2022-11-29T00:25:44.686Z,0.00
2022-11-29T00:26:44.681Z,0.00
2022-11-29T00:27:44.664Z,0.00
2022-11-29T00:28:44.650Z,0.00
2022-11-29T00:29:44.634Z,0.00
2022-11-29T00:30:44.720Z,0.00
2022-11-29T00:31:44.612Z,0.00
2022-11-29T00:32:44.602Z,0.00
2022-11-29T00:33:44.588Z,0.00
2022-11-29T00:34:44.903Z,0.00
2022-11-29T00:35:44.566Z,0.00
2022-11-29T00:36:44.563Z,0.00
2022-11-29T00:37:44.547Z,0.00
2022-11-29T00:38:44.536Z,0.00
2022-11-29T00:39:44.528Z,0.00
2022-11-29T00:40:44.513Z,0.00
2022-11-29T00:41:44.504Z,0.00
2022-11-29T00:42:44.493Z,0.00
2022-11-29T00:43:44.478Z,0.00
2022-11-29T00:44:44.865Z,0.00
2022-11-29T00:45:44.554Z,0.00
2022-11-29T00:46:44.446Z,0.00
2022-11-29T00:47:44.436Z,0.00
2022-11-29T00:48:44.426Z,0.00
2022-11-29T00:49:44.414Z,0.00
2022-11-29T00:50:44.429Z,0.00
2022-11-29T00:51:44.405Z,0.00
2022-11-29T00:52:44.383Z,0.00
2022-11-29T00:53:44.370Z,0.00
2022-11-29T00:54:44.663Z,0.00
2022-11-29T00:55:44.345Z,0.00
2022-11-29T00:56:44.334Z,0.00
2022-11-29T00:57:44.470Z,0.00
2022-11-29T00:58:44.313Z,0.00
2022-11-29T00:59:44.299Z,0.00
2022-11-29T01:00:44.296Z,0.00
2022-11-29T01:01:44.359Z,0.00
2022-11-29T01:02:44.330Z,0.00
2022-11-29T01:03:44.253Z,0.00
2022-11-29T01:04:44.624Z,0.00
2022-11-29T01:05:44.235Z,0.00
2022-11-29T01:06:44.249Z,0.00
2022-11-29T01:07:44.295Z,0.00
2022-11-29T01:08:44.202Z,0.00
2022-11-29T01:09:44.191Z,0.00
2022-11-29T01:10:44.186Z,0.00
2022-11-29T01:11:44.164Z,0.00
2022-11-29T01:12:44.154Z,0.00
2022-11-29T01:13:44.153Z,0.00
2022-11-29T01:14:44.514Z,0.00
2022-11-29T01:15:44.268Z,0.00
2022-11-29T01:16:44.191Z,0.00
2022-11-29T01:17:44.096Z,0.00
2022-11-29T01:18:44.126Z,0.00
2022-11-29T01:19:49.321Z,0.00
2022-11-29T01:20:45.096Z,0.00
2022-11-29T01:21:44.059Z,0.00
2022-11-29T01:22:44.071Z,0.00
2022-11-29T01:23:44.045Z,0.00
2022-11-29T01:24:44.537Z,0.00
2022-11-29T01:25:44.016Z,0.00
2022-11-29T01:26:43.996Z,0.00
2022-11-29T01:27:43.989Z,0.00
2022-11-29T01:28:43.973Z,0.00
2022-11-29T01:29:43.970Z,0.00
2022-11-29T01:30:44.026Z,0.00
2022-11-29T01:31:43.944Z,0.00
2022-11-29T01:32:43.927Z,0.00
2022-11-29T01:33:43.920Z,0.00
2022-11-29T01:34:44.252Z,0.00
2022-11-29T01:35:43.899Z,0.00
2022-11-29T01:36:43.887Z,0.00
2022-11-29T01:37:43.874Z,0.00
2022-11-29T01:38:43.886Z,0.00
2022-11-29T01:39:43.855Z,0.00
2022-11-29T01:40:43.838Z,0.00
2022-11-29T01:41:43.828Z,0.00
2022-11-29T01:42:43.819Z,0.00
2022-11-29T01:43:43.808Z,0.00
2022-11-29T01:44:43.989Z,0.00
2022-11-29T01:45:43.872Z,0.00
2022-11-29T01:46:43.782Z,0.00
2022-11-29T01:47:43.762Z,0.00
2022-11-29T01:48:43.752Z,0.00
2022-11-29T01:49:43.738Z,0.00
2022-11-29T01:50:43.725Z,0.00
2022-11-29T01:51:43.721Z,0.00
2022-11-29T01:52:43.705Z,0.00
2022-11-29T01:53:43.694Z,0.00
2022-11-29T01:54:44.039Z,0.00
2022-11-29T01:55:43.719Z,0.00
2022-11-29T01:56:43.661Z,0.00
2022-11-29T01:57:43.653Z,0.00
2022-11-29T01:58:43.637Z,0.00
2022-11-29T01:59:43.737Z,0.00
2022-11-29T02:00:43.613Z,0.00
2022-11-29T02:01:43.724Z,0.00
2022-11-29T02:02:43.691Z,0.00
2022-11-29T02:03:43.582Z,0.00
2022-11-29T02:04:43.950Z,0.00
2022-11-29T02:05:43.558Z,0.00
2022-11-29T02:06:43.551Z,0.00
2022-11-29T02:07:43.628Z,0.00
2022-11-29T02:08:43.524Z,0.00
2022-11-29T02:09:43.514Z,0.00
2022-11-29T02:10:43.528Z,0.00
2022-11-29T02:11:43.492Z,0.00
2022-11-29T02:12:43.480Z,0.00
2022-11-29T02:13:43.471Z,0.00
2022-11-29T02:14:43.776Z,0.00
2022-11-29T02:15:43.526Z,0.00
2022-11-29T02:16:43.437Z,0.00
2022-11-29T02:17:43.428Z,0.00
2022-11-29T02:18:43.412Z,0.00
2022-11-29T02:19:43.418Z,0.00
2022-11-29T02:20:43.393Z,0.00
2022-11-29T02:21:43.379Z,0.00
2022-11-29T02:22:43.717Z,0.00
2022-11-29T02:23:43.361Z,0.00
2022-11-29T02:24:43.881Z,0.00
2022-11-29T02:25:43.347Z,0.00
2022-11-29T02:26:43.366Z,0.00
2022-11-29T02:27:43.312Z,0.00
2022-11-29T02:28:43.300Z,0.00
2022-11-29T02:29:43.291Z,0.00
2022-11-29T02:30:43.338Z,0.00
2022-11-29T02:31:43.316Z,0.00
2022-11-29T02:32:43.253Z,0.00
2022-11-29T02:33:43.249Z,0.00
2022-11-29T02:34:43.738Z,0.00
2022-11-29T02:35:43.223Z,0.00
2022-11-29T02:36:43.211Z,0.00
2022-11-29T02:37:43.200Z,0.00
2022-11-29T02:38:43.186Z,0.00
2022-11-29T02:39:43.177Z,0.00
2022-11-29T02:40:43.168Z,0.00
2022-11-29T02:41:43.164Z,0.00
2022-11-29T02:42:43.173Z,0.00
2022-11-29T02:43:43.133Z,0.00
2022-11-29T02:44:43.425Z,0.00
2022-11-29T02:45:43.188Z,0.00
2022-11-29T02:46:43.099Z,0.00
2022-11-29T02:47:43.088Z,0.00
2022-11-29T02:48:43.376Z,0.00
2022-11-29T02:49:43.066Z,0.00
2022-11-29T02:50:43.057Z,0.00
2022-11-29T02:51:43.043Z,0.00
2022-11-29T02:52:43.032Z,0.00
2022-11-29T02:53:43.020Z,0.00
2022-11-29T02:54:43.320Z,0.00
2022-11-29T02:55:43.007Z,0.00
2022-11-29T02:56:42.989Z,0.00
2022-11-29T02:57:42.981Z,0.00
2022-11-29T02:58:42.988Z,0.00
2022-11-29T02:59:42.957Z,0.00
2022-11-29T03:00:42.950Z,0.00
2022-11-29T03:01:43.079Z,0.00
2022-11-29T03:02:42.982Z,0.00
2022-11-29T03:03:42.920Z,0.00
2022-11-29T03:04:43.205Z,0.00
2022-11-29T03:05:42.921Z,0.00
2022-11-29T03:06:42.873Z,0.00
2022-11-29T03:07:42.909Z,0.00
2022-11-29T03:08:42.850Z,0.00
2022-11-29T03:09:42.846Z,0.00
2022-11-29T03:10:42.831Z,0.00
2022-11-29T03:11:42.818Z,0.00
2022-11-29T03:12:42.806Z,0.00
2022-11-29T03:13:42.794Z,0.00
2022-11-29T03:14:43.027Z,0.00
2022-11-29T03:15:42.819Z,0.00
2022-11-29T03:16:43.654Z,0.00
2022-11-29T03:17:42.753Z,0.00
2022-11-29T03:18:42.743Z,0.00
2022-11-29T03:19:42.735Z,0.00
2022-11-29T03:20:42.717Z,0.00
2022-11-29T03:21:42.761Z,0.00
2022-11-29T03:22:42.696Z,0.00
2022-11-29T03:23:42.685Z,0.00
2022-11-29T03:24:42.982Z,0.00
2022-11-29T03:25:42.661Z,0.00
2022-11-29T03:26:42.651Z,0.00
2022-11-29T03:27:42.641Z,0.00
2022-11-29T03:28:42.628Z,0.00
2022-11-29T03:29:42.618Z,0.00
2022-11-29T03:30:42.711Z,0.00
2022-11-29T03:31:42.611Z,0.00
2022-11-29T03:32:42.585Z,0.00
2022-11-29T03:33:42.576Z,0.00
2022-11-29T03:34:42.738Z,0.00
2022-11-29T03:35:42.551Z,0.00
2022-11-29T03:36:42.546Z,0.00
2022-11-29T03:37:42.529Z,0.00
2022-11-29T03:38:42.521Z,0.00
2022-11-29T03:39:42.507Z,0.00
2022-11-29T03:40:42.495Z,0.00
2022-11-29T03:41:42.483Z,0.00
2022-11-29T03:42:42.474Z,0.00
2022-11-29T03:43:42.464Z,0.00
2022-11-29T03:44:42.816Z,0.00
2022-11-29T03:45:42.440Z,0.00
2022-11-29T03:46:42.573Z,0.00
2022-11-29T03:47:42.420Z,0.00
2022-11-29T03:48:42.404Z,0.00
2022-11-29T03:49:42.397Z,0.00
2022-11-29T03:50:42.385Z,0.00
2022-11-29T03:51:42.375Z,0.00
2022-11-29T03:52:42.360Z,0.00
2022-11-29T03:53:42.350Z,0.00
2022-11-29T03:54:42.831Z,0.00
2022-11-29T03:55:42.328Z,0.00
2022-11-29T03:56:42.318Z,0.00
2022-11-29T03:57:42.307Z,0.00
2022-11-29T03:58:42.302Z,0.00
2022-11-29T03:59:42.304Z,0.00
2022-11-29T04:00:42.270Z,0.00
2022-11-29T04:01:42.363Z,0.00
2022-11-29T04:02:42.408Z,0.00
2022-11-29T04:03:42.239Z,0.00
2022-11-29T04:04:42.410Z,0.00
2022-11-29T04:05:42.218Z,0.00
2022-11-29T04:06:42.206Z,0.00
2022-11-29T04:07:42.283Z,0.00
2022-11-29T04:08:42.185Z,0.00
2022-11-29T04:09:42.170Z,0.00
2022-11-29T04:10:42.160Z,0.00
2022-11-29T04:11:42.148Z,0.00
2022-11-29T04:12:42.142Z,0.00
2022-11-29T04:13:42.127Z,0.00
2022-11-29T04:14:42.289Z,0.00
2022-11-29T04:15:42.157Z,0.00
2022-11-29T04:16:42.244Z,0.00
2022-11-29T04:17:42.081Z,0.00
2022-11-29T04:18:42.092Z,0.00
2022-11-29T04:19:42.060Z,0.00
2022-11-29T04:20:46.699Z,0.00
2022-11-29T04:21:43.064Z,0.00
2022-11-29T04:22:42.026Z,0.00
2022-11-29T04:23:42.013Z,0.00
2022-11-29T04:24:42.236Z,0.00
2022-11-29T04:25:41.996Z,0.00
2022-11-29T04:26:41.990Z,0.00
2022-11-29T04:27:42.002Z,0.00
2022-11-29T04:28:41.975Z,0.00
2022-11-29T04:29:41.993Z,0.00
2022-11-29T04:30:41.951Z,0.00
2022-11-29T04:31:41.951Z,0.00
2022-11-29T04:32:41.921Z,0.00
2022-11-29T04:33:41.914Z,0.00
2022-11-29T04:34:42.377Z,0.00
2022-11-29T04:35:41.882Z,0.00
2022-11-29T04:36:41.870Z,0.00
2022-11-29T04:37:41.869Z,0.00
2022-11-29T04:38:41.846Z,0.00
2022-11-29T04:39:41.838Z,0.00
2022-11-29T04:40:41.826Z,0.00
2022-11-29T04:41:41.818Z,0.00
2022-11-29T04:42:41.819Z,0.00
2022-11-29T04:43:41.791Z,0.00
2022-11-29T04:44:41.919Z,0.00
2022-11-29T04:45:41.770Z,0.00
2022-11-29T04:46:41.814Z,0.00
2022-11-29T04:47:41.748Z,0.00
2022-11-29T04:48:41.738Z,0.00
2022-11-29T04:49:41.734Z,0.00
2022-11-29T04:50:41.740Z,0.00
2022-11-29T04:51:41.702Z,0.00
2022-11-29T04:52:41.691Z,0.00
2022-11-29T04:53:41.679Z,0.00
2022-11-29T04:54:41.890Z,0.00
2022-11-29T04:55:41.659Z,0.00
2022-11-29T04:56:41.646Z,0.00
2022-11-29T04:57:41.635Z,0.00
2022-11-29T04:58:41.621Z,0.00
2022-11-29T04:59:41.612Z,0.00
2022-11-29T05:00:41.600Z,0.00
2022-11-29T05:01:41.627Z,0.00
2022-11-29T05:02:41.618Z,0.00
2022-11-29T05:03:41.570Z,0.00
2022-11-29T05:04:41.557Z,0.00
2022-11-29T05:05:41.547Z,0.00
2022-11-29T05:06:41.558Z,0.00
2022-11-29T05:07:41.543Z,0.00
2022-11-29T05:08:41.510Z,0.00
2022-11-29T05:09:41.504Z,0.00
2022-11-29T05:10:41.489Z,0.00
2022-11-29T05:11:41.477Z,0.00
2022-11-29T05:12:41.778Z,0.00
2022-11-29T05:13:41.457Z,0.00
2022-11-29T05:14:41.569Z,0.00
2022-11-29T05:15:41.501Z,0.00
2022-11-29T05:16:41.423Z,0.00
2022-11-29T05:17:41.411Z,0.00
2022-11-29T05:18:41.401Z,0.00
2022-11-29T05:19:41.391Z,0.00
2022-11-29T05:20:41.376Z,0.00
2022-11-29T05:21:41.435Z,0.00
2022-11-29T05:22:41.386Z,0.00
2022-11-29T05:23:41.343Z,0.00
2022-11-29T05:24:41.338Z,0.00
2022-11-29T05:25:41.340Z,0.00
2022-11-29T05:26:41.309Z,0.00
2022-11-29T05:27:41.303Z,0.00
2022-11-29T05:28:41.301Z,0.00
2022-11-29T05:29:41.299Z,0.00
2022-11-29T05:30:41.282Z,0.00
2022-11-29T05:31:41.278Z,0.00
2022-11-29T05:32:41.247Z,0.00
2022-11-29T05:33:41.260Z,0.00
2022-11-29T05:34:41.222Z,0.00
2022-11-29T05:35:41.210Z,0.00
2022-11-29T05:36:41.199Z,0.00
2022-11-29T05:37:41.188Z,0.00
2022-11-29T05:38:41.203Z,0.00
2022-11-29T05:39:41.163Z,0.00
2022-11-29T05:40:41.155Z,0.00
2022-11-29T05:41:41.167Z,0.00
2022-11-29T05:42:41.331Z,0.00
2022-11-29T05:43:41.123Z,0.00
2022-11-29T05:44:41.111Z,0.00
2022-11-29T05:45:41.096Z,0.00
2022-11-29T05:46:41.170Z,0.00
2022-11-29T05:47:41.074Z,0.00
2022-11-29T05:48:41.067Z,0.00
2022-11-29T05:49:41.051Z,0.00
2022-11-29T05:50:41.062Z,0.00
2022-11-29T05:51:41.039Z,0.00
2022-11-29T05:52:41.021Z,0.00
2022-11-29T05:53:41.005Z,0.00
2022-11-29T05:54:41.024Z,0.00
2022-11-29T05:55:40.985Z,0.00
2022-11-29T05:56:40.973Z,0.00
2022-11-29T05:57:40.969Z,0.00
2022-11-29T05:58:40.952Z,0.00
2022-11-29T05:59:40.941Z,0.00
2022-11-29T06:00:40.934Z,0.00
2022-11-29T06:01:40.969Z,0.00
2022-11-29T06:02:40.931Z,0.00
2022-11-29T06:03:40.895Z,0.00
2022-11-29T06:04:40.891Z,0.00
2022-11-29T06:05:40.873Z,0.00
2022-11-29T06:06:40.865Z,0.00
2022-11-29T06:07:40.895Z,0.00
2022-11-29T06:08:40.843Z,0.00
2022-11-29T06:09:40.830Z,0.00
2022-11-29T06:10:40.847Z,0.00
2022-11-29T06:11:40.807Z,0.00
2022-11-29T06:12:40.802Z,0.00
2022-11-29T06:13:40.787Z,0.00
2022-11-29T06:14:40.773Z,0.00
2022-11-29T06:15:40.762Z,0.00
2022-11-29T06:16:40.754Z,0.00
2022-11-29T06:17:40.788Z,0.00
2022-11-29T06:18:40.730Z,0.00
2022-11-29T06:19:40.718Z,0.00
2022-11-29T06:22:26.523Z,0.00
2022-11-29T06:23:26.505Z,0.00
2022-11-29T06:24:26.493Z,0.00
2022-11-29T06:25:26.490Z,0.00
2022-11-29T06:26:26.499Z,0.00
2022-11-29T06:27:26.460Z,0.00
2022-11-29T06:28:26.451Z,0.00
2022-11-29T06:29:26.440Z,0.00
2022-11-29T06:30:26.427Z,0.00
2022-11-29T06:31:26.458Z,0.00
2022-11-29T06:32:26.469Z,0.00
2022-11-29T06:33:26.394Z,0.00
2022-11-29T06:34:30.735Z,0.00
2022-11-29T06:35:26.372Z,0.00
2022-11-29T06:36:26.357Z,0.00
2022-11-29T06:37:26.349Z,0.00
2022-11-29T06:38:26.336Z,0.00
2022-11-29T06:39:26.328Z,0.00
2022-11-29T06:40:26.318Z,0.00
2022-11-29T06:41:26.304Z,4.00
2022-11-29T06:42:26.317Z,4.00
2022-11-29T06:43:26.282Z,0.00
2022-11-29T06:44:26.276Z,4.00
2022-11-29T06:45:26.258Z,4.00
2022-11-29T06:46:26.307Z,4.00
2022-11-29T06:47:26.240Z,8.00
2022-11-29T06:48:26.231Z,4.00
2022-11-29T06:49:26.222Z,8.00
2022-11-29T06:50:26.203Z,8.00
2022-11-29T06:51:26.192Z,12.00
2022-11-29T06:52:26.183Z,12.00
2022-11-29T06:53:26.169Z,16.00
2022-11-29T06:54:26.162Z,20.00
2022-11-29T06:55:26.151Z,24.00
2022-11-29T06:56:26.139Z,24.00
2022-11-29T06:57:26.127Z,24.00
2022-11-29T06:58:26.540Z,32.00
2022-11-29T06:59:26.105Z,32.00
2022-11-29T07:00:26.093Z,40.00
2022-11-29T07:01:26.159Z,44.00
2022-11-29T07:02:26.206Z,52.00
2022-11-29T07:03:26.060Z,56.00
2022-11-29T07:04:26.050Z,64.00
2022-11-29T07:05:26.059Z,64.00
2022-11-29T07:06:26.026Z,72.00
2022-11-29T07:07:26.062Z,80.00
2022-11-29T07:08:26.006Z,80.00
2022-11-29T07:09:25.994Z,84.00
2022-11-29T07:10:25.990Z,92.00
2022-11-29T07:11:25.970Z,96.00
2022-11-29T07:12:25.961Z,108.00
2022-11-29T07:13:25.949Z,116.00
2022-11-29T07:14:25.964Z,124.00
2022-11-29T07:15:25.928Z,128.00
2022-11-29T07:16:25.947Z,140.00
2022-11-29T07:17:25.902Z,152.00
2022-11-29T07:18:25.895Z,156.00
2022-11-29T07:19:25.883Z,164.00
2022-11-29T07:20:25.872Z,168.00
2022-11-29T07:21:25.861Z,184.00
2022-11-29T07:22:25.849Z,196.00
2022-11-29T07:23:25.836Z,212.00
2022-11-29T07:24:25.828Z,232.00
2022-11-29T07:25:25.816Z,240.00
2022-11-29T07:26:25.806Z,268.00
2022-11-29T07:27:25.793Z,272.00
2022-11-29T07:28:25.788Z,284.00
2022-11-29T07:29:25.769Z,308.00
2022-11-29T07:30:25.787Z,324.00
2022-11-29T07:31:25.788Z,348.00
2022-11-29T07:32:25.738Z,364.00
2022-11-29T07:33:25.726Z,368.00
2022-11-29T07:34:25.717Z,396.00
2022-11-29T07:35:25.705Z,416.00
2022-11-29T07:36:25.693Z,424.00
2022-11-29T07:37:25.686Z,440.00
2022-11-29T07:38:25.672Z,468.00
2022-11-29T07:39:25.658Z,484.00
2022-11-29T07:40:25.649Z,500.00
2022-11-29T07:41:25.636Z,536.00
2022-11-29T07:42:25.627Z,564.00
2022-11-29T07:43:25.620Z,604.00
2022-11-29T07:44:25.607Z,612.00
2022-11-29T07:45:25.591Z,640.00
2022-11-29T07:46:25.686Z,668.00
2022-11-29T07:47:25.566Z,688.00
2022-11-29T07:48:25.563Z,736.00
2022-11-29T07:49:25.547Z,760.00
2022-11-29T07:50:25.537Z,784.00
2022-11-29T07:51:25.526Z,800.00
2022-11-29T07:52:25.517Z,824.00
2022-11-29T07:53:25.505Z,852.00
2022-11-29T07:54:25.497Z,864.00
2022-11-29T07:55:25.480Z,888.00
2022-11-29T07:56:25.473Z,900.00
2022-11-29T07:57:25.456Z,920.00
2022-11-29T07:58:25.496Z,956.00
2022-11-29T07:59:25.434Z,972.00
2022-11-29T08:00:25.515Z,1020.00
2022-11-29T08:01:25.548Z,1056.00
2022-11-29T08:02:25.489Z,1116.00
2022-11-29T08:03:25.589Z,1172.00
2022-11-29T08:04:25.380Z,1164.00
2022-11-29T08:05:25.373Z,1188.00
2022-11-29T08:06:25.357Z,1224.00
2022-11-29T08:07:25.449Z,1292.00
2022-11-29T08:08:25.336Z,1296.00
2022-11-29T08:09:25.328Z,1324.00
2022-11-29T08:10:25.413Z,1372.00
2022-11-29T08:11:25.305Z,1456.00
2022-11-29T08:12:25.289Z,1476.00
2022-11-29T08:13:25.280Z,1460.00
2022-11-29T08:14:25.282Z,1528.00
2022-11-29T08:15:25.256Z,1604.00
2022-11-29T08:16:25.326Z,1652.00
2022-11-29T08:17:25.232Z,1688.00
2022-11-29T08:18:25.246Z,1692.00
2022-11-29T08:19:25.211Z,1780.00
2022-11-29T08:20:25.287Z,1856.00
2022-11-29T08:21:25.190Z,1852.00
2022-11-29T08:22:25.187Z,1852.00
2022-11-29T08:23:25.164Z,1888.00
2022-11-29T08:24:25.159Z,1956.00
2022-11-29T08:25:25.143Z,1976.00
2022-11-29T08:26:31.084Z,2044.00
2022-11-29T08:27:26.147Z,2104.00
2022-11-29T08:28:25.112Z,2060.00
2022-11-29T08:29:25.099Z,2148.00
2022-11-29T08:30:25.171Z,2204.00
2022-11-29T08:31:25.163Z,2276.00
2022-11-29T08:32:25.069Z,2268.00
2022-11-29T08:33:25.304Z,2352.00
2022-11-29T08:34:25.069Z,2420.00
2022-11-29T08:35:25.036Z,2420.00
2022-11-29T08:36:25.022Z,2472.00
2022-11-29T08:37:25.008Z,2548.00
2022-11-29T08:38:25.001Z,2636.00
2022-11-29T08:39:24.984Z,2688.00
2022-11-29T08:40:24.975Z,2840.00
2022-11-29T08:41:24.964Z,2900.00
2022-11-29T08:42:24.954Z,2980.00
2022-11-29T08:43:24.941Z,3012.00
2022-11-29T08:44:24.933Z,3024.00
2022-11-29T08:45:24.967Z,2976.00
2022-11-29T08:46:24.951Z,2936.00
2022-11-29T08:47:24.902Z,3024.00
2022-11-29T08:48:24.903Z,3072.00
2022-11-29T08:49:25.081Z,3076.00
2022-11-29T08:50:24.900Z,3108.00
2022-11-29T08:51:24.853Z,3180.00
2022-11-29T08:52:24.847Z,3100.00
2022-11-29T08:53:24.835Z,3132.00
2022-11-29T08:54:24.825Z,3240.00
2022-11-29T08:55:24.812Z,3216.00
2022-11-29T08:57:10.236Z,3264.00
2022-11-29T08:57:41.475Z,3280.00
2022-11-29T08:58:25.826Z,3388.00
2022-11-29T08:59:24.767Z,3248.00
2022-11-29T09:00:24.759Z,3344.00
2022-11-29T09:01:24.818Z,3348.00
2022-11-29T09:02:24.832Z,3372.00
2022-11-29T09:03:24.723Z,3604.00
2022-11-29T09:04:24.715Z,3764.00
2022-11-29T09:05:24.702Z,3860.00
2022-11-29T09:06:24.716Z,4012.00
2022-11-29T09:07:24.709Z,4076.00
2022-11-29T09:08:24.670Z,4288.00
2022-11-29T09:09:24.658Z,4464.00
2022-11-29T09:10:24.655Z,4604.00
2022-11-29T09:11:24.633Z,4712.00
2022-11-29T09:12:24.622Z,4920.00
2022-11-29T09:13:24.614Z,4888.00
2022-11-29T09:14:24.600Z,4988.00
2022-11-29T09:15:24.594Z,5192.00
2022-11-29T09:16:24.624Z,5072.00
2022-11-29T09:17:24.567Z,4956.00
2022-11-29T09:18:24.558Z,4752.00
2022-11-29T09:19:24.545Z,4960.00
2022-11-29T09:20:24.535Z,5116.00
2022-11-29T09:21:24.521Z,4800.00
2022-11-29T09:22:24.542Z,4640.00
2022-11-29T09:23:24.501Z,4520.00
2022-11-29T09:24:24.491Z,4488.00
2022-11-29T09:25:24.478Z,4384.00
2022-11-29T09:26:24.467Z,4120.00
2022-11-29T09:27:24.457Z,4084.00
2022-11-29T09:28:24.443Z,3856.00
2022-11-29T09:29:24.432Z,3588.00
2022-11-29T09:30:24.435Z,3356.00
2022-11-29T09:31:24.472Z,3208.00
2022-11-29T09:32:24.399Z,3100.00
2022-11-29T09:33:24.391Z,3016.00
2022-11-29T09:34:24.383Z,2948.00
2022-11-29T09:35:24.364Z,2896.00
2022-11-29T09:36:28.474Z,2904.00
2022-11-29T09:37:24.367Z,2988.00
2022-11-29T09:38:24.362Z,3028.00
2022-11-29T09:39:24.321Z,3028.00
2022-11-29T09:40:24.315Z,3296.00
2022-11-29T09:41:24.298Z,3196.00
2022-11-29T09:42:24.292Z,3284.00
2022-11-29T09:43:24.276Z,3228.00
2022-11-29T09:44:24.265Z,3216.00
2022-11-29T09:45:24.255Z,3452.00
2022-11-29T09:46:24.264Z,3576.00
2022-11-29T09:47:24.230Z,3588.00
2022-11-29T09:48:24.221Z,3756.00
2022-11-29T09:49:24.208Z,3968.00
2022-11-29T09:50:24.199Z,4144.00
2022-11-29T09:51:24.387Z,4456.00
2022-11-29T09:52:24.196Z,4768.00
2022-11-29T09:53:24.165Z,5180.00
2022-11-29T09:54:24.243Z,5844.00
2022-11-29T09:55:24.144Z,5692.00
2022-11-29T09:56:24.135Z,6244.00
2022-11-29T09:57:24.119Z,6144.00
2022-11-29T09:58:24.114Z,6188.00
2022-11-29T09:59:24.098Z,5820.00
2022-11-29T10:00:24.089Z,6052.00
2022-11-29T10:01:24.127Z,5964.00
2022-11-29T10:02:24.116Z,5408.00
2022-11-29T10:03:24.051Z,5328.00
2022-11-29T10:04:24.042Z,5576.00
2022-11-29T10:05:24.040Z,5696.00
2022-11-29T10:06:24.020Z,5480.00
2022-11-29T10:07:24.098Z,5244.00
2022-11-29T10:08:24.002Z,5180.00
2022-11-29T10:09:23.984Z,5384.00
2022-11-29T10:10:24.030Z,5720.00
2022-11-29T10:11:23.963Z,5368.00
2022-11-29T10:12:23.951Z,5480.00
2022-11-29T10:13:23.941Z,5548.00
2022-11-29T10:14:23.931Z,6024.00
2022-11-29T10:15:23.923Z,5836.00
2022-11-29T10:16:23.945Z,6216.00
2022-11-29T10:17:23.893Z,6676.00
2022-11-29T10:18:23.884Z,6724.00
2022-11-29T10:19:23.923Z,7040.00
2022-11-29T10:20:23.864Z,7328.00
2022-11-29T10:21:23.852Z,6948.00
2022-11-29T10:22:23.840Z,7148.00
2022-11-29T10:23:23.827Z,7204.00
2022-11-29T10:24:23.821Z,7792.00
2022-11-29T10:25:23.804Z,7396.00
2022-11-29T10:26:23.820Z,7344.00
2022-11-29T10:27:23.823Z,7844.00
2022-11-29T10:28:23.771Z,7272.00
2022-11-29T10:29:23.759Z,7540.00
2022-11-29T10:30:23.858Z,7536.00
2022-11-29T10:31:23.740Z,7160.00
2022-11-29T10:32:23.727Z,7060.00
2022-11-29T10:33:23.718Z,6852.00
2022-11-29T10:34:23.703Z,6720.00
2022-11-29T10:35:23.695Z,6264.00
2022-11-29T10:36:23.686Z,6444.00
2022-11-29T10:37:23.676Z,6168.00
2022-11-29T10:38:30.755Z,6020.00
2022-11-29T10:39:24.677Z,5968.00
2022-11-29T10:40:23.638Z,5868.00
2022-11-29T10:41:23.626Z,5676.00
2022-11-29T10:42:23.659Z,5564.00
2022-11-29T10:43:23.603Z,5612.00
2022-11-29T10:44:23.590Z,5572.00
2022-11-29T10:45:23.579Z,5620.00
2022-11-29T10:46:23.637Z,5520.00
2022-11-29T10:47:23.562Z,5352.00
2022-11-29T10:48:23.548Z,5428.00
2022-11-29T10:49:23.535Z,5432.00
2022-11-29T10:50:23.523Z,5360.00
2022-11-29T10:51:23.511Z,5260.00
2022-11-29T10:52:23.509Z,5268.00
2022-11-29T10:53:23.490Z,5088.00
2022-11-29T10:54:23.484Z,5040.00
2022-11-29T10:55:23.467Z,5192.00
2022-11-29T10:56:23.457Z,5428.00
2022-11-29T10:57:23.446Z,5952.00
2022-11-29T10:58:27.908Z,6024.00
2022-11-29T10:59:23.423Z,6032.00
2022-11-29T11:00:23.411Z,6256.00
2022-11-29T11:01:23.551Z,6584.00
2022-11-29T11:02:23.389Z,6480.00
2022-11-29T11:03:23.380Z,6416.00
2022-11-29T11:04:23.366Z,6368.00
2022-11-29T11:05:23.379Z,6240.00
2022-11-29T11:06:23.356Z,6504.00
2022-11-29T11:07:23.468Z,6408.00
2022-11-29T11:08:23.320Z,6116.00
2022-11-29T11:09:23.318Z,6228.00
2022-11-29T11:10:23.298Z,6028.00
2022-11-29T11:11:23.290Z,5744.00
2022-11-29T11:12:23.275Z,5692.00
2022-11-29T11:13:23.387Z,5536.00
2022-11-29T11:14:23.286Z,5376.00
2022-11-29T11:15:23.246Z,4916.00
2022-11-29T11:16:23.311Z,4928.00
2022-11-29T11:17:23.224Z,4652.00
2022-11-29T11:18:23.208Z,4344.00
2022-11-29T11:19:23.197Z,4200.00
2022-11-29T11:20:23.200Z,4052.00
2022-11-29T11:21:23.174Z,4156.00
2022-11-29T11:22:23.162Z,4108.00
2022-11-29T11:23:23.157Z,4060.00
2022-11-29T11:24:23.138Z,4356.00
2022-11-29T11:25:23.130Z,4476.00
2022-11-29T11:26:23.118Z,4552.00
2022-11-29T11:27:23.133Z,4460.00
2022-11-29T11:28:23.099Z,4448.00
2022-11-29T11:29:23.094Z,4416.00
2022-11-29T11:30:23.099Z,4316.00
2022-11-29T11:31:23.138Z,4512.00
2022-11-29T11:32:23.052Z,4628.00
2022-11-29T11:33:23.038Z,4560.00
2022-11-29T11:34:23.029Z,4708.00
2022-11-29T11:35:23.019Z,4924.00
2022-11-29T11:36:23.007Z,5108.00
2022-11-29T11:37:22.997Z,5428.00
2022-11-29T11:38:22.983Z,5720.00
2022-11-29T11:39:22.975Z,6004.00
2022-11-29T11:40:23.003Z,5964.00
2022-11-29T11:41:22.951Z,6076.00
2022-11-29T11:42:22.935Z,6076.00
2022-11-29T11:43:22.927Z,5684.00
2022-11-29T11:44:50.517Z,5616.00
2022-11-29T11:45:23.952Z,5192.00
2022-11-29T11:46:23.009Z,5072.00
2022-11-29T11:47:22.884Z,5012.00
2022-11-29T11:48:22.871Z,5248.00
2022-11-29T11:49:22.863Z,5188.00
2022-11-29T11:50:22.847Z,4848.00
2022-11-29T11:51:22.850Z,4764.00
2022-11-29T11:52:22.825Z,4556.00
2022-11-29T11:53:22.814Z,4408.00
2022-11-29T11:54:22.801Z,4152.00
2022-11-29T11:55:22.792Z,4276.00
2022-11-29T11:56:22.780Z,4324.00
2022-11-29T11:57:22.769Z,4180.00
2022-11-29T11:58:22.759Z,3696.00
2022-11-29T11:59:22.748Z,3672.00
2022-11-29T12:00:47.619Z,4000.00
2022-11-29T12:01:22.727Z,3692.00
2022-11-29T12:02:22.807Z,3640.00
2022-11-29T12:03:22.765Z,3408.00
2022-11-29T12:04:22.692Z,3644.00
2022-11-29T12:05:22.682Z,3516.00
2022-11-29T12:06:22.668Z,3580.00
2022-11-29T12:07:38.772Z,3568.00
2022-11-29T12:08:23.686Z,3784.00
2022-11-29T12:09:22.636Z,3748.00
2022-11-29T12:10:22.621Z,3964.00
2022-11-29T12:11:22.612Z,4000.00
2022-11-29T12:12:22.602Z,3936.00
2022-11-29T12:13:22.591Z,3504.00
2022-11-29T12:14:22.576Z,3204.00
2022-11-29T12:15:22.574Z,3224.00
2022-11-29T12:16:22.555Z,3336.00
2022-11-29T12:17:22.546Z,3288.00
2022-11-29T12:18:22.560Z,3292.00
2022-11-29T12:19:22.523Z,3436.00
2022-11-29T12:20:22.509Z,3516.00
2022-11-29T12:21:22.523Z,3636.00
2022-11-29T12:22:22.487Z,3452.00
2022-11-29T12:23:22.478Z,3772.00
2022-11-29T12:24:22.475Z,3580.00
2022-11-29T12:25:22.460Z,3276.00
2022-11-29T12:26:55.337Z,3324.00
2022-11-29T12:27:23.457Z,3112.00
2022-11-29T12:28:22.420Z,3248.00
2022-11-29T12:29:22.438Z,3164.00
2022-11-29T12:30:22.396Z,3072.00
2022-11-29T12:31:22.495Z,3080.00
2022-11-29T12:32:22.674Z,2880.00
2022-11-29T12:33:22.374Z,3008.00
2022-11-29T12:34:22.953Z,2824.00
2022-11-29T12:35:22.344Z,2604.00
2022-11-29T12:36:22.330Z,2692.00
2022-11-29T12:37:22.323Z,2924.00
2022-11-29T12:38:22.305Z,3040.00
2022-11-29T12:39:22.299Z,2932.00
2022-11-29T12:40:22.289Z,3156.00
2022-11-29T12:41:22.273Z,3348.00
2022-11-29T12:42:22.261Z,3384.00
2022-11-29T12:43:22.254Z,3240.00
2022-11-29T12:44:22.237Z,3288.00
2022-11-29T12:45:22.232Z,3480.00
2022-11-29T12:46:22.263Z,3580.00
2022-11-29T12:47:37.732Z,3856.00